sensor_id;sensor_type;location;lat;lon;timestamp;temperature;humidity
70947;DHT22;58605;48.700;8.760;2022-09-09T00:00:47;13.60;99.90
70947;DHT22;58605;48.700;8.760;2022-09-09T00:03:17;13.60;99.90
70947;DHT22;58605;48.700;8.760;2022-09-09T00:05:51;13.60;99.90
70947;DHT22;58605;48.700;8.760;2022-09-09T00:08:21;13.50;99.90
70947;DHT22;58605;48.700;8.760;2022-09-09T00:10:53;13.40;99.90
70947;DHT22;58605;48.700;8.760;2022-09-09T00:13:22;13.40;99.90
70947;DHT22;58605;48.700;8.760;2022-09-09T00:15:57;13.40;99.90
70947;DHT22;58605;48.700;8.760;2022-09-09T00:18:25;13.50;99.90
70947;DHT22;58605;48.700;8.760;2022-09-09T00:20:58;13.70;99.90
70947;DHT22;58605;48.700;8.760;2022-09-09T00:23:30;13.80;99.90
70947;DHT22;58605;48.700;8.760;2022-09-09T00:26:08;13.90;99.90
70947;DHT22;58605;48.700;8.760;2022-09-09T00:28:39;14.10;99.90
70947;DHT22;58605;48.700;8.760;2022-09-09T00:31:12;14.10;99.90
70947;DHT22;58605;48.700;8.760;2022-09-09T00:33:38;14.20;99.90
70947;DHT22;58605;48.700;8.760;2022-09-09T00:36:12;14.40;99.90
70947;DHT22;58605;48.700;8.760;2022-09-09T00:38:42;14.50;99.90
70947;DHT22;58605;48.700;8.760;2022-09-09T00:41:17;14.60;99.90
70947;DHT22;58605;48.700;8.760;2022-09-09T00:43:54;14.60;99.90
70947;DHT22;58605;48.700;8.760;2022-09-09T00:46:39;14.60;99.90
70947;DHT22;58605;48.700;8.760;2022-09-09T00:49:15;14.40;99.90
70947;DHT22;58605;48.700;8.760;2022-09-09T00:51:49;14.20;99.90
70947;DHT22;58605;48.700;8.760;2022-09-09T00:54:38;14.20;99.90
70947;DHT22;58605;48.700;8.760;2022-09-09T00:57:27;14.20;99.90
70947;DHT22;58605;48.700;8.760;2022-09-09T00:59:59;14.20;99.90
70947;DHT22;58605;48.700;8.760;2022-09-09T01:03:06;14.20;99.90
70947;DHT22;58605;48.700;8.760;2022-09-09T01:05:39;14.20;99.90
70947;DHT22;58605;48.700;8.760;2022-09-09T01:08:16;14.20;99.90
70947;DHT22;58605;48.700;8.760;2022-09-09T01:10:48;14.20;99.90
70947;DHT22;58605;48.700;8.760;2022-09-09T01:13:20;14.20;99.90
70947;DHT22;58605;48.700;8.760;2022-09-09T01:15:48;14.10;99.90
70947;DHT22;58605;48.700;8.760;2022-09-09T01:18:17;14.00;99.90
70947;DHT22;58605;48.700;8.760;2022-09-09T01:20:53;14.00;99.90
70947;DHT22;58605;48.700;8.760;2022-09-09T01:23:38;13.90;99.90
70947;DHT22;58605;48.700;8.760;2022-09-09T01:26:19;13.90;99.90
70947;DHT22;58605;48.700;8.760;2022-09-09T01:28:48;13.90;99.90
70947;DHT22;58605;48.700;8.760;2022-09-09T01:31:18;14.00;99.90
70947;DHT22;58605;48.700;8.760;2022-09-09T01:33:44;14.00;99.90
70947;DHT22;58605;48.700;8.760;2022-09-09T01:36:13;14.00;99.90
70947;DHT22;58605;48.700;8.760;2022-09-09T01:38:41;14.00;99.90
70947;DHT22;58605;48.700;8.760;2022-09-09T01:41:07;14.20;99.90
70947;DHT22;58605;48.700;8.760;2022-09-09T01:43:34;14.40;99.90
70947;DHT22;58605;48.700;8.760;2022-09-09T01:46:01;14.60;99.90
70947;DHT22;58605;48.700;8.760;2022-09-09T01:48:28;14.90;99.90
70947;DHT22;58605;48.700;8.760;2022-09-09T01:50:55;15.10;99.90
70947;DHT22;58605;48.700;8.760;2022-09-09T01:53:21;15.30;99.30
70947;DHT22;58605;48.700;8.760;2022-09-09T01:55:55;15.50;99.50
70947;DHT22;58605;48.700;8.760;2022-09-09T01:58:32;15.70;97.90
70947;DHT22;58605;48.700;8.760;2022-09-09T02:01:06;15.90;97.50
70947;DHT22;58605;48.700;8.760;2022-09-09T02:03:35;16.10;96.10
70947;DHT22;58605;48.700;8.760;2022-09-09T02:06:09;16.20;95.30
70947;DHT22;58605;48.700;8.760;2022-09-09T02:08:43;16.30;94.90
70947;DHT22;58605;48.700;8.760;2022-09-09T02:11:13;16.40;94.50
70947;DHT22;58605;48.700;8.760;2022-09-09T02:13:40;16.50;93.70
70947;DHT22;58605;48.700;8.760;2022-09-09T02:16:12;16.60;92.90
70947;DHT22;58605;48.700;8.760;2022-09-09T02:18:43;16.40;92.70
70947;DHT22;58605;48.700;8.760;2022-09-09T02:21:13;16.30;93.10
70947;DHT22;58605;48.700;8.760;2022-09-09T02:23:41;16.40;93.70
70947;DHT22;58605;48.700;8.760;2022-09-09T02:26:08;16.30;93.40
70947;DHT22;58605;48.700;8.760;2022-09-09T02:28:37;16.20;93.30
70947;DHT22;58605;48.700;8.760;2022-09-09T02:31:04;15.90;94.10
70947;DHT22;58605;48.700;8.760;2022-09-09T02:33:35;15.60;95.00
70947;DHT22;58605;48.700;8.760;2022-09-09T02:36:03;15.40;96.80
70947;DHT22;58605;48.700;8.760;2022-09-09T02:38:34;15.30;97.80
70947;DHT22;58605;48.700;8.760;2022-09-09T02:41:01;15.30;99.20
70947;DHT22;58605;48.700;8.760;2022-09-09T02:43:31;15.20;99.20
70947;DHT22;58605;48.700;8.760;2022-09-09T02:46:02;15.30;99.60
70947;DHT22;58605;48.700;8.760;2022-09-09T02:48:33;15.30;99.70
70947;DHT22;58605;48.700;8.760;2022-09-09T02:51:07;15.30;99.90
70947;DHT22;58605;48.700;8.760;2022-09-09T02:53:40;15.30;99.50
70947;DHT22;58605;48.700;8.760;2022-09-09T02:56:14;15.20;98.40
70947;DHT22;58605;48.700;8.760;2022-09-09T02:58:41;14.90;99.20
70947;DHT22;58605;48.700;8.760;2022-09-09T03:01:07;14.80;99.90
70947;DHT22;58605;48.700;8.760;2022-09-09T03:03:35;14.60;99.90
70947;DHT22;58605;48.700;8.760;2022-09-09T03:06:02;14.50;99.90
70947;DHT22;58605;48.700;8.760;2022-09-09T03:08:28;14.20;99.90
70947;DHT22;58605;48.700;8.760;2022-09-09T03:10:54;13.90;99.90
70947;DHT22;58605;48.700;8.760;2022-09-09T03:13:20;13.70;99.90
70947;DHT22;58605;48.700;8.760;2022-09-09T03:15:47;13.50;99.90
70947;DHT22;58605;48.700;8.760;2022-09-09T03:18:14;13.30;99.90
70947;DHT22;58605;48.700;8.760;2022-09-09T03:20:42;13.20;99.90
70947;DHT22;58605;48.700;8.760;2022-09-09T03:23:08;13.10;99.90
70947;DHT22;58605;48.700;8.760;2022-09-09T03:25:34;13.00;99.90
70947;DHT22;58605;48.700;8.760;2022-09-09T03:28:01;12.80;99.90
70947;DHT22;58605;48.700;8.760;2022-09-09T03:30:28;12.70;99.90
70947;DHT22;58605;48.700;8.760;2022-09-09T03:32:54;12.70;99.90
70947;DHT22;58605;48.700;8.760;2022-09-09T03:35:20;12.60;99.90
70947;DHT22;58605;48.700;8.760;2022-09-09T03:37:48;12.60;99.90
70947;DHT22;58605;48.700;8.760;2022-09-09T03:40:15;12.60;99.90
70947;DHT22;58605;48.700;8.760;2022-09-09T03:42:41;12.60;99.90
70947;DHT22;58605;48.700;8.760;2022-09-09T03:45:08;12.70;99.90
70947;DHT22;58605;48.700;8.760;2022-09-09T03:47:36;12.80;99.90
70947;DHT22;58605;48.700;8.760;2022-09-09T03:50:03;13.10;99.90
70947;DHT22;58605;48.700;8.760;2022-09-09T03:52:31;13.40;99.90
70947;DHT22;58605;48.700;8.760;2022-09-09T03:55:01;13.60;99.90
70947;DHT22;58605;48.700;8.760;2022-09-09T03:57:27;13.50;99.90
70947;DHT22;58605;48.700;8.760;2022-09-09T03:59:53;13.30;99.90
70947;DHT22;58605;48.700;8.760;2022-09-09T04:02:19;13.20;99.90
70947;DHT22;58605;48.700;8.760;2022-09-09T04:04:47;13.10;99.90
70947;DHT22;58605;48.700;8.760;2022-09-09T04:07:13;12.90;99.90
70947;DHT22;58605;48.700;8.760;2022-09-09T04:09:39;13.00;99.90
70947;DHT22;58605;48.700;8.760;2022-09-09T04:12:07;12.90;99.90
70947;DHT22;58605;48.700;8.760;2022-09-09T04:14:33;12.90;99.90
70947;DHT22;58605;48.700;8.760;2022-09-09T04:16:59;12.80;99.90
70947;DHT22;58605;48.700;8.760;2022-09-09T04:19:25;12.80;99.90
70947;DHT22;58605;48.700;8.760;2022-09-09T04:21:51;12.80;99.90
70947;DHT22;58605;48.700;8.760;2022-09-09T04:24:17;12.90;99.90
70947;DHT22;58605;48.700;8.760;2022-09-09T04:26:44;13.00;99.90
70947;DHT22;58605;48.700;8.760;2022-09-09T04:29:12;13.10;99.90
70947;DHT22;58605;48.700;8.760;2022-09-09T04:31:38;13.20;99.90
70947;DHT22;58605;48.700;8.760;2022-09-09T04:34:07;13.20;99.90
70947;DHT22;58605;48.700;8.760;2022-09-09T04:36:33;13.20;99.90
70947;DHT22;58605;48.700;8.760;2022-09-09T04:39:00;13.20;99.90
70947;DHT22;58605;48.700;8.760;2022-09-09T04:41:27;13.10;99.90
70947;DHT22;58605;48.700;8.760;2022-09-09T04:43:53;13.10;99.90
70947;DHT22;58605;48.700;8.760;2022-09-09T04:46:21;13.10;99.90
70947;DHT22;58605;48.700;8.760;2022-09-09T04:48:48;13.10;99.90
70947;DHT22;58605;48.700;8.760;2022-09-09T04:51:15;13.00;99.90
70947;DHT22;58605;48.700;8.760;2022-09-09T04:53:41;12.90;99.90
70947;DHT22;58605;48.700;8.760;2022-09-09T04:56:09;12.80;99.90
70947;DHT22;58605;48.700;8.760;2022-09-09T04:58:36;12.70;99.90
70947;DHT22;58605;48.700;8.760;2022-09-09T05:01:06;12.60;99.90
70947;DHT22;58605;48.700;8.760;2022-09-09T05:03:33;12.70;99.90
70947;DHT22;58605;48.700;8.760;2022-09-09T05:06:04;12.70;99.90
70947;DHT22;58605;48.700;8.760;2022-09-09T05:08:30;12.80;99.90
70947;DHT22;58605;48.700;8.760;2022-09-09T05:10:56;12.90;99.90
70947;DHT22;58605;48.700;8.760;2022-09-09T05:13:23;13.00;99.90
70947;DHT22;58605;48.700;8.760;2022-09-09T05:15:52;13.10;99.90
70947;DHT22;58605;48.700;8.760;2022-09-09T05:18:18;13.20;99.90
70947;DHT22;58605;48.700;8.760;2022-09-09T05:20:46;13.20;99.90
70947;DHT22;58605;48.700;8.760;2022-09-09T05:23:14;13.20;99.90
70947;DHT22;58605;48.700;8.760;2022-09-09T05:25:40;13.20;99.90
70947;DHT22;58605;48.700;8.760;2022-09-09T05:28:08;13.10;99.90
70947;DHT22;58605;48.700;8.760;2022-09-09T05:30:34;13.10;99.90
70947;DHT22;58605;48.700;8.760;2022-09-09T05:33:00;13.00;99.90
70947;DHT22;58605;48.700;8.760;2022-09-09T05:35:27;12.90;99.90
70947;DHT22;58605;48.700;8.760;2022-09-09T05:37:59;13.00;99.90
70947;DHT22;58605;48.700;8.760;2022-09-09T05:40:25;13.10;99.90
70947;DHT22;58605;48.700;8.760;2022-09-09T05:42:51;13.20;99.90
70947;DHT22;58605;48.700;8.760;2022-09-09T05:45:18;13.40;99.90
70947;DHT22;58605;48.700;8.760;2022-09-09T05:47:51;13.70;99.90
70947;DHT22;58605;48.700;8.760;2022-09-09T05:50:19;13.90;99.90
70947;DHT22;58605;48.700;8.760;2022-09-09T05:52:45;13.90;99.90
70947;DHT22;58605;48.700;8.760;2022-09-09T05:55:12;14.00;99.90
70947;DHT22;58605;48.700;8.760;2022-09-09T05:57:38;14.10;99.90
70947;DHT22;58605;48.700;8.760;2022-09-09T06:00:05;14.10;99.90
70947;DHT22;58605;48.700;8.760;2022-09-09T06:02:32;14.20;99.90
70947;DHT22;58605;48.700;8.760;2022-09-09T06:04:58;14.10;99.90
70947;DHT22;58605;48.700;8.760;2022-09-09T06:07:27;14.10;99.90
70947;DHT22;58605;48.700;8.760;2022-09-09T06:09:53;14.00;99.90
70947;DHT22;58605;48.700;8.760;2022-09-09T06:12:21;13.90;99.90
70947;DHT22;58605;48.700;8.760;2022-09-09T06:14:47;13.80;99.90
70947;DHT22;58605;48.700;8.760;2022-09-09T06:17:13;13.70;99.90
70947;DHT22;58605;48.700;8.760;2022-09-09T06:19:39;13.60;99.90
70947;DHT22;58605;48.700;8.760;2022-09-09T06:22:05;13.70;99.90
70947;DHT22;58605;48.700;8.760;2022-09-09T06:24:31;13.70;99.90
70947;DHT22;58605;48.700;8.760;2022-09-09T06:26:58;13.60;99.90
70947;DHT22;58605;48.700;8.760;2022-09-09T06:29:27;13.60;99.90
70947;DHT22;58605;48.700;8.760;2022-09-09T06:31:53;13.70;99.90
70947;DHT22;58605;48.700;8.760;2022-09-09T06:34:22;13.90;99.90
70947;DHT22;58605;48.700;8.760;2022-09-09T06:36:48;14.00;99.90
70947;DHT22;58605;48.700;8.760;2022-09-09T06:39:14;14.00;99.90
70947;DHT22;58605;48.700;8.760;2022-09-09T06:41:41;14.10;99.90
70947;DHT22;58605;48.700;8.760;2022-09-09T06:44:08;14.20;99.90
70947;DHT22;58605;48.700;8.760;2022-09-09T06:46:35;14.20;99.90
70947;DHT22;58605;48.700;8.760;2022-09-09T06:49:02;14.30;99.90
70947;DHT22;58605;48.700;8.760;2022-09-09T06:51:29;14.30;99.90
70947;DHT22;58605;48.700;8.760;2022-09-09T06:53:57;14.40;99.90
70947;DHT22;58605;48.700;8.760;2022-09-09T06:56:25;14.40;99.90
70947;DHT22;58605;48.700;8.760;2022-09-09T06:58:53;14.50;99.90
70947;DHT22;58605;48.700;8.760;2022-09-09T07:01:22;14.60;99.90
70947;DHT22;58605;48.700;8.760;2022-09-09T07:03:51;14.80;99.90
70947;DHT22;58605;48.700;8.760;2022-09-09T07:06:19;14.90;99.90
70947;DHT22;58605;48.700;8.760;2022-09-09T07:08:50;15.10;99.90
70947;DHT22;58605;48.700;8.760;2022-09-09T07:11:17;15.20;99.90
70947;DHT22;58605;48.700;8.760;2022-09-09T07:13:43;15.30;99.90
70947;DHT22;58605;48.700;8.760;2022-09-09T07:16:11;15.40;99.90
70947;DHT22;58605;48.700;8.760;2022-09-09T07:18:37;15.50;99.90
70947;DHT22;58605;48.700;8.760;2022-09-09T07:21:06;15.60;99.90
70947;DHT22;58605;48.700;8.760;2022-09-09T07:23:32;15.70;99.90
70947;DHT22;58605;48.700;8.760;2022-09-09T07:25:58;15.80;99.90
70947;DHT22;58605;48.700;8.760;2022-09-09T07:28:25;16.00;99.90
70947;DHT22;58605;48.700;8.760;2022-09-09T07:30:55;16.10;99.90
70947;DHT22;58605;48.700;8.760;2022-09-09T07:33:21;16.10;99.90
70947;DHT22;58605;48.700;8.760;2022-09-09T07:35:47;16.20;99.90
70947;DHT22;58605;48.700;8.760;2022-09-09T07:38:15;16.30;99.90
70947;DHT22;58605;48.700;8.760;2022-09-09T07:40:41;16.40;99.90
70947;DHT22;58605;48.700;8.760;2022-09-09T07:43:14;16.50;99.90
70947;DHT22;58605;48.700;8.760;2022-09-09T07:45:42;16.50;99.90
70947;DHT22;58605;48.700;8.760;2022-09-09T07:48:09;16.50;99.90
70947;DHT22;58605;48.700;8.760;2022-09-09T07:50:35;16.60;99.90
70947;DHT22;58605;48.700;8.760;2022-09-09T07:53:01;16.60;99.90
70947;DHT22;58605;48.700;8.760;2022-09-09T07:55:29;16.70;99.10
70947;DHT22;58605;48.700;8.760;2022-09-09T07:57:56;16.70;98.50
70947;DHT22;58605;48.700;8.760;2022-09-09T08:00:22;16.80;97.80
70947;DHT22;58605;48.700;8.760;2022-09-09T08:02:55;16.80;96.70
70947;DHT22;58605;48.700;8.760;2022-09-09T08:05:21;16.90;96.30
70947;DHT22;58605;48.700;8.760;2022-09-09T08:07:48;17.00;96.30
70947;DHT22;58605;48.700;8.760;2022-09-09T08:10:14;17.00;96.30
70947;DHT22;58605;48.700;8.760;2022-09-09T08:12:43;17.00;95.80
70947;DHT22;58605;48.700;8.760;2022-09-09T08:15:09;17.10;95.30
70947;DHT22;58605;48.700;8.760;2022-09-09T08:17:35;17.20;95.30
70947;DHT22;58605;48.700;8.760;2022-09-09T08:20:04;17.20;95.50
70947;DHT22;58605;48.700;8.760;2022-09-09T08:22:30;17.20;94.90
70947;DHT22;58605;48.700;8.760;2022-09-09T08:24:56;17.20;94.60
70947;DHT22;58605;48.700;8.760;2022-09-09T08:27:23;17.40;94.70
70947;DHT22;58605;48.700;8.760;2022-09-09T08:29:51;17.40;96.30
70947;DHT22;58605;48.700;8.760;2022-09-09T08:32:17;17.30;95.20
70947;DHT22;58605;48.700;8.760;2022-09-09T08:34:44;17.30;94.10
70947;DHT22;58605;48.700;8.760;2022-09-09T08:37:13;17.20;94.10
70947;DHT22;58605;48.700;8.760;2022-09-09T08:39:39;17.20;93.60
70947;DHT22;58605;48.700;8.760;2022-09-09T08:42:22;17.30;93.10
70947;DHT22;58605;48.700;8.760;2022-09-09T08:45:15;17.30;92.80
70947;DHT22;58605;48.700;8.760;2022-09-09T08:47:54;17.30;93.00
70947;DHT22;58605;48.700;8.760;2022-09-09T08:50:26;17.30;93.10
70947;DHT22;58605;48.700;8.760;2022-09-09T08:52:59;17.30;92.10
70947;DHT22;58605;48.700;8.760;2022-09-09T08:55:35;17.20;92.30
70947;DHT22;58605;48.700;8.760;2022-09-09T08:58:11;17.20;92.70
70947;DHT22;58605;48.700;8.760;2022-09-09T09:00:51;17.20;92.60
70947;DHT22;58605;48.700;8.760;2022-09-09T09:03:27;17.30;92.70
70947;DHT22;58605;48.700;8.760;2022-09-09T09:06:01;17.30;93.30
70947;DHT22;58605;48.700;8.760;2022-09-09T09:08:37;17.40;93.30
70947;DHT22;58605;48.700;8.760;2022-09-09T09:11:06;17.50;94.20
70947;DHT22;58605;48.700;8.760;2022-09-09T09:13:37;17.60;93.10
70947;DHT22;58605;48.700;8.760;2022-09-09T09:16:14;17.50;92.70
70947;DHT22;58605;48.700;8.760;2022-09-09T09:18:41;17.50;92.60
70947;DHT22;58605;48.700;8.760;2022-09-09T09:21:12;17.60;92.40
70947;DHT22;58605;48.700;8.760;2022-09-09T09:23:45;17.60;92.10
70947;DHT22;58605;48.700;8.760;2022-09-09T09:26:14;17.70;93.90
70947;DHT22;58605;48.700;8.760;2022-09-09T09:28:40;17.90;93.50
70947;DHT22;58605;48.700;8.760;2022-09-09T09:31:10;17.90;91.10
70947;DHT22;58605;48.700;8.760;2022-09-09T09:33:45;17.80;91.50
70947;DHT22;58605;48.700;8.760;2022-09-09T09:36:12;17.90;90.90
70947;DHT22;58605;48.700;8.760;2022-09-09T09:38:52;18.00;90.80
70947;DHT22;58605;48.700;8.760;2022-09-09T09:41:29;18.00;90.20
70947;DHT22;58605;48.700;8.760;2022-09-09T09:43:55;17.90;90.10
70947;DHT22;58605;48.700;8.760;2022-09-09T09:46:24;17.80;90.40
70947;DHT22;58605;48.700;8.760;2022-09-09T09:48:57;17.90;89.90
70947;DHT22;58605;48.700;8.760;2022-09-09T09:51:23;17.90;90.10
70947;DHT22;58605;48.700;8.760;2022-09-09T09:53:50;17.90;89.90
70947;DHT22;58605;48.700;8.760;2022-09-09T09:56:26;18.10;88.50
70947;DHT22;58605;48.700;8.760;2022-09-09T09:58:55;18.20;86.80
70947;DHT22;58605;48.700;8.760;2022-09-09T10:01:24;18.20;87.60
70947;DHT22;58605;48.700;8.760;2022-09-09T10:03:52;18.30;85.70
70947;DHT22;58605;48.700;8.760;2022-09-09T10:06:29;18.20;86.90
70947;DHT22;58605;48.700;8.760;2022-09-09T10:08:55;18.10;87.90
70947;DHT22;58605;48.700;8.760;2022-09-09T10:11:29;18.10;87.10
70947;DHT22;58605;48.700;8.760;2022-09-09T10:14:03;18.10;88.10
70947;DHT22;58605;48.700;8.760;2022-09-09T10:16:40;18.10;85.10
70947;DHT22;58605;48.700;8.760;2022-09-09T10:19:13;18.10;85.20
70947;DHT22;58605;48.700;8.760;2022-09-09T10:22:00;18.10;83.50
70947;DHT22;58605;48.700;8.760;2022-09-09T10:24:53;18.10;84.10
70947;DHT22;58605;48.700;8.760;2022-09-09T10:27:29;18.20;83.10
70947;DHT22;58605;48.700;8.760;2022-09-09T10:32:51;17.90;83.40
70947;DHT22;58605;48.700;8.760;2022-09-09T10:35:29;17.80;82.90
70947;DHT22;58605;48.700;8.760;2022-09-09T10:38:10;17.90;81.10
70947;DHT22;58605;48.700;8.760;2022-09-09T10:40:39;17.80;82.20
70947;DHT22;58605;48.700;8.760;2022-09-09T10:43:16;17.70;79.70
70947;DHT22;58605;48.700;8.760;2022-09-09T10:45:53;17.70;76.70
70947;DHT22;58605;48.700;8.760;2022-09-09T10:48:31;17.70;78.40
70947;DHT22;58605;48.700;8.760;2022-09-09T10:51:03;17.50;77.70
70947;DHT22;58605;48.700;8.760;2022-09-09T10:53:37;17.50;79.40
70947;DHT22;58605;48.700;8.760;2022-09-09T10:56:10;17.40;79.70
70947;DHT22;58605;48.700;8.760;2022-09-09T10:58:42;17.30;82.60
70947;DHT22;58605;48.700;8.760;2022-09-09T11:01:15;17.20;84.40
70947;DHT22;58605;48.700;8.760;2022-09-09T11:03:44;17.10;85.80
70947;DHT22;58605;48.700;8.760;2022-09-09T11:06:15;17.00;87.00
70947;DHT22;58605;48.700;8.760;2022-09-09T11:08:42;17.00;88.50
70947;DHT22;58605;48.700;8.760;2022-09-09T11:11:13;16.90;89.80
70947;DHT22;58605;48.700;8.760;2022-09-09T11:13:45;17.00;90.60
70947;DHT22;58605;48.700;8.760;2022-09-09T11:16:24;17.00;91.00
70947;DHT22;58605;48.700;8.760;2022-09-09T11:18:57;17.00;91.40
70947;DHT22;58605;48.700;8.760;2022-09-09T11:21:28;17.10;91.70
70947;DHT22;58605;48.700;8.760;2022-09-09T11:23:59;17.20;92.00
70947;DHT22;58605;48.700;8.760;2022-09-09T11:26:31;17.30;92.30
70947;DHT22;58605;48.700;8.760;2022-09-09T11:31:57;17.80;92.30
70947;DHT22;58605;48.700;8.760;2022-09-09T11:34:35;17.90;91.40
70947;DHT22;58605;48.700;8.760;2022-09-09T11:37:23;18.10;90.40
70947;DHT22;58605;48.700;8.760;2022-09-09T11:40:07;18.20;87.00
70947;DHT22;58605;48.700;8.760;2022-09-09T11:42:35;18.30;91.30
70947;DHT22;58605;48.700;8.760;2022-09-09T11:45:10;18.20;90.60
70947;DHT22;58605;48.700;8.760;2022-09-09T11:47:37;18.20;88.90
70947;DHT22;58605;48.700;8.760;2022-09-09T11:50:28;18.10;89.50
70947;DHT22;58605;48.700;8.760;2022-09-09T11:53:14;18.00;90.90
70947;DHT22;58605;48.700;8.760;2022-09-09T11:55:41;17.90;90.40
70947;DHT22;58605;48.700;8.760;2022-09-09T11:58:15;18.00;91.90
70947;DHT22;58605;48.700;8.760;2022-09-09T12:00:44;18.00;96.10
70947;DHT22;58605;48.700;8.760;2022-09-09T12:03:35;18.30;92.40
70947;DHT22;58605;48.700;8.760;2022-09-09T12:06:13;18.20;90.10
70947;DHT22;58605;48.700;8.760;2022-09-09T12:08:43;18.10;89.60
70947;DHT22;58605;48.700;8.760;2022-09-09T12:11:10;17.90;90.10
70947;DHT22;58605;48.700;8.760;2022-09-09T12:13:37;17.90;90.00
70947;DHT22;58605;48.700;8.760;2022-09-09T12:16:03;18.10;92.00
70947;DHT22;58605;48.700;8.760;2022-09-09T12:18:33;18.20;90.80
70947;DHT22;58605;48.700;8.760;2022-09-09T12:21:06;18.20;91.00
70947;DHT22;58605;48.700;8.760;2022-09-09T12:23:43;18.10;88.90
70947;DHT22;58605;48.700;8.760;2022-09-09T12:26:25;18.20;90.80
70947;DHT22;58605;48.700;8.760;2022-09-09T12:28:59;18.20;89.30
70947;DHT22;58605;48.700;8.760;2022-09-09T12:31:34;18.20;89.40
70947;DHT22;58605;48.700;8.760;2022-09-09T12:34:10;18.20;86.90
70947;DHT22;58605;48.700;8.760;2022-09-09T12:36:38;18.20;87.60
70947;DHT22;58605;48.700;8.760;2022-09-09T12:39:17;18.20;87.90
70947;DHT22;58605;48.700;8.760;2022-09-09T12:41:51;18.10;86.80
70947;DHT22;58605;48.700;8.760;2022-09-09T12:44:22;18.20;87.30
70947;DHT22;58605;48.700;8.760;2022-09-09T12:46:48;18.10;87.10
70947;DHT22;58605;48.700;8.760;2022-09-09T12:49:27;18.10;86.60
70947;DHT22;58605;48.700;8.760;2022-09-09T12:51:54;18.10;86.90
70947;DHT22;58605;48.700;8.760;2022-09-09T12:54:21;18.10;87.10
70947;DHT22;58605;48.700;8.760;2022-09-09T12:56:48;18.10;87.00
70947;DHT22;58605;48.700;8.760;2022-09-09T12:59:23;18.10;86.70
70947;DHT22;58605;48.700;8.760;2022-09-09T13:01:55;18.20;85.40
70947;DHT22;58605;48.700;8.760;2022-09-09T13:04:21;18.20;85.10
70947;DHT22;58605;48.700;8.760;2022-09-09T13:06:48;18.30;82.10
70947;DHT22;58605;48.700;8.760;2022-09-09T13:09:15;18.20;82.90
70947;DHT22;58605;48.700;8.760;2022-09-09T13:11:46;18.20;81.90
70947;DHT22;58605;48.700;8.760;2022-09-09T13:14:17;18.10;81.20
70947;DHT22;58605;48.700;8.760;2022-09-09T13:16:55;18.10;80.50
70947;DHT22;58605;48.700;8.760;2022-09-09T13:19:21;18.10;81.00
70947;DHT22;58605;48.700;8.760;2022-09-09T13:21:47;18.20;80.00
70947;DHT22;58605;48.700;8.760;2022-09-09T13:24:27;18.40;79.10
70947;DHT22;58605;48.700;8.760;2022-09-09T13:26:59;18.50;76.00
70947;DHT22;58605;48.700;8.760;2022-09-09T13:29:27;18.50;76.40
70947;DHT22;58605;48.700;8.760;2022-09-09T13:31:54;18.60;76.30
70947;DHT22;58605;48.700;8.760;2022-09-09T13:34:30;18.60;76.40
70947;DHT22;58605;48.700;8.760;2022-09-09T13:36:59;18.50;76.40
70947;DHT22;58605;48.700;8.760;2022-09-09T13:39:27;18.40;78.20
70947;DHT22;58605;48.700;8.760;2022-09-09T13:41:53;18.40;77.60
70947;DHT22;58605;48.700;8.760;2022-09-09T13:44:23;18.50;74.70
70947;DHT22;58605;48.700;8.760;2022-09-09T13:47:00;18.80;73.00
70947;DHT22;58605;48.700;8.760;2022-09-09T13:49:28;18.80;74.40
70947;DHT22;58605;48.700;8.760;2022-09-09T13:52:04;18.50;75.90
70947;DHT22;58605;48.700;8.760;2022-09-09T13:54:33;18.30;77.60
70947;DHT22;58605;48.700;8.760;2022-09-09T13:56:59;18.20;76.20
70947;DHT22;58605;48.700;8.760;2022-09-09T13:59:27;18.20;76.70
70947;DHT22;58605;48.700;8.760;2022-09-09T14:01:53;18.20;76.50
70947;DHT22;58605;48.700;8.760;2022-09-09T14:04:19;18.20;76.70
70947;DHT22;58605;48.700;8.760;2022-09-09T14:06:49;18.20;77.50
70947;DHT22;58605;48.700;8.760;2022-09-09T14:09:17;18.40;74.90
70947;DHT22;58605;48.700;8.760;2022-09-09T14:11:44;18.50;73.90
70947;DHT22;58605;48.700;8.760;2022-09-09T14:14:11;18.60;73.60
70947;DHT22;58605;48.700;8.760;2022-09-09T14:16:38;18.60;72.30
70947;DHT22;58605;48.700;8.760;2022-09-09T14:19:04;18.60;74.50
70947;DHT22;58605;48.700;8.760;2022-09-09T14:21:30;18.70;72.00
70947;DHT22;58605;48.700;8.760;2022-09-09T14:23:57;18.80;72.70
70947;DHT22;58605;48.700;8.760;2022-09-09T14:26:24;18.90;70.40
70947;DHT22;58605;48.700;8.760;2022-09-09T14:28:50;19.00;69.80
70947;DHT22;58605;48.700;8.760;2022-09-09T14:31:17;19.00;71.60
70947;DHT22;58605;48.700;8.760;2022-09-09T14:33:53;19.00;70.80
70947;DHT22;58605;48.700;8.760;2022-09-09T14:36:20;19.10;70.70
70947;DHT22;58605;48.700;8.760;2022-09-09T14:38:46;19.10;69.70
70947;DHT22;58605;48.700;8.760;2022-09-09T14:41:14;19.10;69.30
70947;DHT22;58605;48.700;8.760;2022-09-09T14:43:42;18.70;71.70
70947;DHT22;58605;48.700;8.760;2022-09-09T14:46:10;18.70;71.30
70947;DHT22;58605;48.700;8.760;2022-09-09T14:48:37;18.60;71.80
70947;DHT22;58605;48.700;8.760;2022-09-09T14:51:08;18.80;70.60
70947;DHT22;58605;48.700;8.760;2022-09-09T14:53:34;18.90;71.50
70947;DHT22;58605;48.700;8.760;2022-09-09T14:56:05;18.90;71.10
70947;DHT22;58605;48.700;8.760;2022-09-09T14:58:31;18.60;73.00
70947;DHT22;58605;48.700;8.760;2022-09-09T15:01:02;18.50;71.50
70947;DHT22;58605;48.700;8.760;2022-09-09T15:03:28;18.50;73.10
70947;DHT22;58605;48.700;8.760;2022-09-09T15:05:54;18.40;74.30
70947;DHT22;58605;48.700;8.760;2022-09-09T15:08:22;18.40;73.50
70947;DHT22;58605;48.700;8.760;2022-09-09T15:10:48;18.40;73.70
70947;DHT22;58605;48.700;8.760;2022-09-09T15:13:15;18.50;72.60
70947;DHT22;58605;48.700;8.760;2022-09-09T15:15:42;18.50;72.80
70947;DHT22;58605;48.700;8.760;2022-09-09T15:18:09;18.60;71.80
70947;DHT22;58605;48.700;8.760;2022-09-09T15:20:35;18.70;73.10
70947;DHT22;58605;48.700;8.760;2022-09-09T15:23:03;18.50;71.50
70947;DHT22;58605;48.700;8.760;2022-09-09T15:25:51;18.50;73.10
70947;DHT22;58605;48.700;8.760;2022-09-09T15:28:17;18.40;71.70
70947;DHT22;58605;48.700;8.760;2022-09-09T15:30:43;18.40;71.70
70947;DHT22;58605;48.700;8.760;2022-09-09T15:33:10;18.50;71.10
70947;DHT22;58605;48.700;8.760;2022-09-09T15:35:36;18.50;71.30
70947;DHT22;58605;48.700;8.760;2022-09-09T15:38:02;18.50;71.50
70947;DHT22;58605;48.700;8.760;2022-09-09T15:40:30;18.40;71.70
70947;DHT22;58605;48.700;8.760;2022-09-09T15:42:59;18.50;69.20
70947;DHT22;58605;48.700;8.760;2022-09-09T15:45:25;18.60;70.30
70947;DHT22;58605;48.700;8.760;2022-09-09T15:47:52;18.50;69.70
70947;DHT22;58605;48.700;8.760;2022-09-09T15:50:18;18.50;71.60
70947;DHT22;58605;48.700;8.760;2022-09-09T15:52:44;18.50;70.10